createdAt,value
2023-11-21T00:00:02.301Z,99563.47
2023-11-21T00:02:29.727Z,99574.03
2023-11-21T00:04:57.096Z,99570.44
2023-11-21T00:07:24.492Z,99566.03
2023-11-21T00:09:52.234Z,99579.56
2023-11-21T00:12:19.533Z,99571.03
2023-11-21T00:14:46.948Z,99571.69
2023-11-21T00:17:14.353Z,99579.09
2023-11-21T00:19:41.782Z,99580.66
2023-11-21T00:22:10.097Z,99579.09
2023-11-21T00:24:37.401Z,99595.97
2023-11-21T00:27:04.836Z,99593.59
2023-11-21T00:29:32.238Z,99594.22
2023-11-21T00:31:59.681Z,99605.88
2023-11-21T00:34:27.091Z,99603.69
2023-11-21T00:36:55.633Z,99602.88
2023-11-21T00:39:22.992Z,99598.94
2023-11-21T00:41:50.317Z,99593.94
2023-11-21T00:44:17.648Z,99598.50
2023-11-21T00:46:45.055Z,99593.63
2023-11-21T00:49:12.399Z,99587.66
2023-11-21T00:51:39.748Z,99591.56
2023-11-21T00:54:07.901Z,99586.06
2023-11-21T00:56:35.212Z,99582.28
2023-11-21T00:59:02.535Z,99582.28
2023-11-21T01:01:29.959Z,99583.06
2023-11-21T01:03:57.303Z,99579.63
2023-11-21T01:06:24.603Z,99573.47
2023-11-21T01:08:51.902Z,99581.66
2023-11-21T01:11:19.365Z,99569.34
2023-11-21T01:13:46.802Z,99573.94
2023-11-21T01:16:14.213Z,99560.88
2023-11-21T01:18:41.629Z,99557.28
2023-11-21T01:21:10.136Z,99555.69
2023-11-21T01:23:37.612Z,99555.88
2023-11-21T01:26:04.949Z,99575.53
2023-11-21T01:28:32.380Z,99571.59
2023-11-21T01:30:59.783Z,99568.75
2023-11-21T01:33:27.254Z,99563.41
2023-11-21T01:35:56.104Z,99557.75
2023-11-21T01:38:23.542Z,99568.28
2023-11-21T01:40:50.963Z,99563.25
2023-11-21T01:43:22.712Z,99558.69
2023-11-21T01:45:50.229Z,99566.41
2023-11-21T01:48:17.914Z,99565.94
2023-11-21T01:50:46.104Z,99568.78
2023-11-21T01:53:14.335Z,99570.53
2023-11-21T01:55:43.043Z,99570.06
2023-11-21T01:58:10.467Z,99569.75
2023-11-21T02:00:39.675Z,99557.13
2023-11-21T02:03:08.536Z,99551.94
2023-11-21T02:05:36.075Z,99566.56
2023-11-21T02:08:04.398Z,99565.81
2023-11-21T02:10:32.535Z,99566.13
2023-11-21T02:13:01.331Z,99571.47
2023-11-21T02:15:30.187Z,99577.75
2023-11-21T02:17:59.702Z,99574.59
2023-11-21T02:20:27.661Z,99579.78
2023-11-21T02:22:59.597Z,99578.41
2023-11-21T02:25:30.913Z,99563.28
2023-11-21T02:27:59.339Z,99568.47
2023-11-21T02:30:26.752Z,99557.78
2023-11-21T02:32:54.367Z,99558.22
2023-11-21T02:35:26.952Z,99556.50
2023-11-21T02:37:54.840Z,99558.72
2023-11-21T02:40:22.743Z,99558.84
2023-11-21T02:42:53.734Z,99559.97
2023-11-21T02:45:22.378Z,99553.19
2023-11-21T02:47:54.795Z,99558.25
2023-11-21T02:50:24.095Z,99555.09
2023-11-21T02:52:52.727Z,99541.72
2023-11-21T02:55:21.701Z,99559.81
2023-11-21T02:57:49.207Z,99557.13
2023-11-21T03:00:17.268Z,99562.31
2023-11-21T03:02:46.052Z,99561.19
2023-11-21T03:05:13.435Z,99559.63
2023-11-21T03:07:41.353Z,99560.63
2023-11-21T03:10:13.166Z,99562.50
2023-11-21T03:12:41.003Z,99568.16
2023-11-21T03:15:08.998Z,99577.59
2023-11-21T03:17:36.505Z,99578.84
2023-11-21T03:20:05.715Z,99578.22
2023-11-21T03:22:35.955Z,99563.09
2023-11-21T03:25:04.189Z,99567.84
2023-11-21T03:27:31.488Z,99579.16
2023-11-21T03:29:58.760Z,99580.56
2023-11-21T03:32:26.101Z,99576.00
2023-11-21T03:34:58.137Z,99554.59
2023-11-21T03:37:29.393Z,99565.16
2023-11-21T03:39:58.222Z,99570.19
2023-11-21T03:42:28.877Z,99575.84
2023-11-21T03:44:56.230Z,99577.91
2023-11-21T03:47:23.706Z,99576.78
2023-11-21T03:49:51.185Z,99587.31
2023-11-21T03:52:18.733Z,99583.56
2023-11-21T03:54:46.203Z,99575.22
2023-11-21T03:57:13.624Z,99554.91
2023-11-21T03:59:42.239Z,99567.53
2023-11-21T04:02:09.660Z,99559.94
2023-11-21T04:04:37.441Z,99558.88
2023-11-21T04:07:05.461Z,99550.69
2023-11-21T04:09:32.894Z,99543.28
2023-11-21T04:12:00.379Z,99537.00
2023-11-21T04:14:27.786Z,99532.59
2023-11-21T04:16:55.332Z,99536.69
2023-11-21T04:19:23.019Z,99528.97
2023-11-21T04:21:50.518Z,99540.13
2023-11-21T04:24:17.853Z,99534.78
2023-11-21T04:26:45.639Z,99526.44
2023-11-21T04:29:13.049Z,99520.28
2023-11-21T04:31:40.410Z,99526.75
2023-11-21T04:34:07.852Z,99528.00
2023-11-21T04:36:36.151Z,99526.44
2023-11-21T04:39:03.758Z,99534.31
2023-11-21T04:41:32.913Z,99545.66
2023-11-21T04:44:01.880Z,99543.09
2023-11-21T04:46:29.614Z,99561.69
2023-11-21T04:48:56.965Z,99559.16
2023-11-21T04:51:24.313Z,99551.44
2023-11-21T04:53:51.610Z,99565.28
2023-11-21T04:56:18.963Z,99560.88
2023-11-21T04:58:46.692Z,99566.53
2023-11-21T05:01:14.193Z,99581.31
2023-11-21T05:03:42.329Z,99575.97
2023-11-21T05:06:12.488Z,99583.06
2023-11-21T05:08:39.846Z,99580.38
2023-11-21T05:11:08.485Z,99560.69
2023-11-21T05:13:36.073Z,99571.88
2023-11-21T05:16:05.478Z,99579.59
2023-11-21T05:18:32.920Z,99589.47
2023-11-21T05:21:00.311Z,99599.53
2023-11-21T05:23:27.739Z,99599.84
2023-11-21T05:25:55.138Z,99593.06
2023-11-21T05:28:22.538Z,99592.13
2023-11-21T05:30:53.849Z,99595.81
2023-11-21T05:33:26.508Z,99605.06
2023-11-21T05:35:53.864Z,99602.22
2023-11-21T05:38:23.384Z,99604.13
2023-11-21T05:40:51.112Z,99623.56
2023-11-21T05:43:19.161Z,99623.56
2023-11-21T05:45:46.577Z,99626.38
2023-11-21T05:48:13.964Z,99635.28
2023-11-21T05:50:41.280Z,99635.06
2023-11-21T05:53:10.626Z,99624.16
2023-11-21T05:55:38.210Z,99628.25
2023-11-21T05:58:05.889Z,99627.16
2023-11-21T06:00:33.821Z,99629.50
2023-11-21T06:03:01.513Z,99633.13
2023-11-21T06:05:28.901Z,99636.34
2023-11-21T06:08:00.204Z,99636.34
2023-11-21T06:10:28.727Z,99645.59
2023-11-21T06:12:56.238Z,99648.31
2023-11-21T06:15:24.786Z,99652.44
2023-11-21T06:17:56.381Z,99648.59
2023-11-21T06:20:24.476Z,99655.75
2023-11-21T06:22:52.716Z,99649.19
2023-11-21T06:25:20.382Z,99673.66
2023-11-21T06:27:48.993Z,99670.06
2023-11-21T06:30:16.663Z,99675.91
2023-11-21T06:32:47.862Z,99673.09
2023-11-21T06:35:17.429Z,99675.78
2023-11-21T06:37:49.705Z,99672.31
2023-11-21T06:40:20.282Z,99673.16
2023-11-21T06:42:48.579Z,99660.28
2023-11-21T06:45:19.866Z,99668.66
2023-11-21T06:47:47.623Z,99660.16
2023-11-21T06:50:15.412Z,99654.81
2023-11-21T06:52:45.187Z,99665.81
2023-11-21T06:55:12.834Z,99674.69
2023-11-21T06:57:40.122Z,99682.53
2023-11-21T07:00:11.040Z,99685.63
2023-11-21T07:02:44.071Z,99675.56
2023-11-21T07:08:23.750Z,99684.59
2023-11-21T07:10:54.543Z,99692.66
2023-11-21T07:13:25.410Z,99675.47
2023-11-21T07:15:58.601Z,99683.66
2023-11-21T07:18:25.953Z,99673.44
2023-11-21T07:20:53.405Z,99667.59
2023-11-21T07:23:20.806Z,99678.63
2023-11-21T07:25:48.837Z,99681.78
2023-11-21T07:28:16.494Z,99696.41
2023-11-21T07:30:44.111Z,99708.69
2023-11-21T07:33:11.830Z,99710.88
2023-11-21T07:35:39.333Z,99709.72
2023-11-21T07:38:06.959Z,99707.81
2023-11-21T07:40:34.557Z,99706.44
2023-11-21T07:43:01.871Z,99702.84
2023-11-21T07:45:29.514Z,99699.75
2023-11-21T07:48:01.943Z,99698.97
2023-11-21T07:50:29.370Z,99702.72
2023-11-21T07:52:56.917Z,99701.63
2023-11-21T07:55:51.973Z,99717.53
2023-11-21T07:58:44.210Z,99690.09
2023-11-21T08:02:32.516Z,99718.63
2023-11-21T08:05:00.089Z,99705.84
2023-11-21T08:07:27.811Z,99721.63
2023-11-21T08:09:55.382Z,99718.81
2023-11-21T08:12:22.710Z,99717.25
2023-11-21T08:14:50.063Z,99721.38
2023-11-21T08:17:18.654Z,99731.38
2023-11-21T08:19:50.377Z,99721.19
2023-11-21T08:22:19.830Z,99711.09
2023-11-21T08:24:48.067Z,99726.25
2023-11-21T08:27:17.010Z,99722.47
2023-11-21T08:29:44.509Z,99728.00
2023-11-21T08:32:11.952Z,99734.91
2023-11-21T08:34:41.288Z,99743.09
2023-11-21T08:37:08.852Z,99749.56
2023-11-21T08:39:45.522Z,99749.56
2023-11-21T08:42:14.659Z,99748.63
2023-11-21T08:44:42.550Z,99739.97
2023-11-21T08:47:10.041Z,99735.75
2023-11-21T08:49:37.843Z,99724.94
2023-11-21T08:52:20.472Z,99738.16
2023-11-21T08:54:57.253Z,99742.09
2023-11-21T08:57:33.890Z,99742.53
2023-11-21T09:00:01.341Z,99737.81
2023-11-21T09:02:28.737Z,99751.88
2023-11-21T09:04:56.155Z,99738.63
2023-11-21T09:07:26.909Z,99746.53
2023-11-21T09:09:54.320Z,99738.31
2023-11-21T09:12:28.970Z,99737.69
2023-11-21T09:15:19.102Z,99746.66
2023-11-21T09:17:50.966Z,99741.16
2023-11-21T09:20:18.426Z,99741.78
2023-11-21T09:22:49.537Z,99749.81
2023-11-21T09:25:17.230Z,99738.47
2023-11-21T09:27:44.683Z,99741.00
2023-11-21T09:30:12.882Z,99726.84
2023-11-21T09:32:41.971Z,99711.25
2023-11-21T09:35:10.098Z,99721.63
2023-11-21T09:37:39.276Z,99719.75
2023-11-21T09:40:13.745Z,99725.44
2023-11-21T09:42:45.311Z,99730.28
2023-11-21T09:45:29.953Z,99728.72
2023-11-21T09:47:57.919Z,99730.47
2023-11-21T09:50:25.772Z,99725.91
2023-11-21T09:52:59.265Z,99728.28
2023-11-21T09:55:30.883Z,99729.69
2023-11-21T09:57:59.001Z,99729.03
2023-11-21T10:00:26.634Z,99719.75
2023-11-21T10:02:56.636Z,99715.50
2023-11-21T10:05:27.535Z,99717.72
2023-11-21T10:07:58.802Z,99716.63
2023-11-21T10:10:26.622Z,99726.53
2023-11-21T10:12:56.641Z,99726.72
2023-11-21T10:15:24.559Z,99717.25
2023-11-21T10:17:54.394Z,99724.97
2023-11-21T10:20:22.172Z,99713.63
2023-11-21T10:22:50.790Z,99715.19
2023-11-21T10:25:21.531Z,99712.66
2023-11-21T10:27:51.684Z,99719.28
2023-11-21T10:30:19.283Z,99715.03
2023-11-21T10:32:47.905Z,99708.25
2023-11-21T10:35:18.017Z,99705.09
2023-11-21T10:37:45.703Z,99699.41
2023-11-21T10:40:18.877Z,99687.59
2023-11-21T10:42:46.451Z,99704.16
2023-11-21T10:45:16.718Z,99699.56
2023-11-21T10:47:45.185Z,99699.28
2023-11-21T10:50:13.042Z,99703.38
2023-11-21T10:52:42.442Z,99699.75
2023-11-21T10:55:23.339Z,99689.66
2023-11-21T10:57:52.288Z,99695.34
2023-11-21T11:00:22.744Z,99690.94
2023-11-21T11:02:52.539Z,99683.69
2023-11-21T11:08:28.776Z,99684.19
2023-11-21T11:11:00.044Z,99677.72
2023-11-21T11:13:27.497Z,99684.00
2023-11-21T11:16:08.352Z,99658.19
2023-11-21T11:18:35.925Z,99669.03
2023-11-21T11:21:30.772Z,99652.19
2023-11-21T11:24:12.907Z,99665.41
2023-11-21T11:26:52.952Z,99665.09
2023-11-21T11:29:32.277Z,99684.75
2023-11-21T11:32:11.420Z,99675.63
2023-11-21T11:34:43.898Z,99679.25
2023-11-21T11:37:16.718Z,99663.19
2023-11-21T11:40:09.188Z,99664.59
2023-11-21T11:42:36.002Z,99636.44
2023-11-21T11:45:05.591Z,99646.03
2023-11-21T11:47:47.674Z,99666.50
2023-11-21T11:50:35.698Z,99669.81
2023-11-21T11:53:16.291Z,99662.88
2023-11-21T11:55:43.733Z,99669.00
2023-11-21T11:58:11.345Z,99678.31
2023-11-21T12:00:41.234Z,99672.34
2023-11-21T12:03:09.697Z,99682.91
2023-11-21T12:05:39.880Z,99681.47
2023-11-21T12:08:08.612Z,99677.25
2023-11-21T12:10:37.689Z,99674.09
2023-11-21T12:13:11.285Z,99685.72
2023-11-21T12:15:40.130Z,99689.97
2023-11-21T12:18:41.245Z,99686.34
2023-11-21T12:21:11.091Z,99685.56
2023-11-21T12:23:38.531Z,99690.94
2023-11-21T12:26:06.304Z,99694.88
2023-11-21T12:28:35.402Z,99688.59
2023-11-21T12:31:15.528Z,99686.03
2023-11-21T12:34:03.181Z,99697.53
2023-11-21T12:36:33.776Z,99697.06
2023-11-21T12:39:01.602Z,99690.44
2023-11-21T12:41:33.193Z,99693.91
2023-11-21T12:44:13.164Z,99690.94
2023-11-21T12:46:48.397Z,99699.09
2023-11-21T12:53:00.243Z,99694.69
2023-11-21T12:55:31.264Z,99696.88
2023-11-21T12:58:07.103Z,99697.81
2023-11-21T13:00:38.491Z,99688.22
2023-11-21T13:03:07.138Z,99683.66
2023-11-21T13:05:36.095Z,99690.09
2023-11-21T13:08:04.626Z,99685.25
2023-11-21T13:10:32.631Z,99694.34
2023-11-21T13:13:06.396Z,99689.44
2023-11-21T13:15:44.244Z,99703.31
2023-11-21T13:18:27.187Z,99703.50
2023-11-21T13:20:56.254Z,99704.44
2023-11-21T13:23:45.280Z,99701.56
2023-11-21T13:26:14.681Z,99710.72
2023-11-21T13:28:49.822Z,99710.88
2023-11-21T13:31:27.162Z,99707.91
2023-11-21T13:33:58.098Z,99710.28
2023-11-21T13:36:57.186Z,99701.91
2023-11-21T13:39:25.010Z,99692.94
2023-11-21T13:41:56.358Z,99694.69
2023-11-21T13:44:36.088Z,99706.50
2023-11-21T13:47:03.760Z,99707.28
2023-11-21T13:49:36.564Z,99709.19
2023-11-21T13:52:09.182Z,99690.63
2023-11-21T13:54:36.656Z,99716.28
2023-11-21T13:57:07.793Z,99722.13
2023-11-21T13:59:35.237Z,99717.72
2023-11-21T14:02:17.895Z,99711.41
2023-11-21T14:04:56.211Z,99710.75
2023-11-21T14:07:37.164Z,99719.13
2023-11-21T14:10:06.265Z,99717.72
2023-11-21T14:12:38.357Z,99709.50
2023-11-21T14:15:10.929Z,99718.50
2023-11-21T14:17:41.008Z,99718.19
2023-11-21T14:20:15.766Z,99728.41
2023-11-21T14:22:43.481Z,99736.44
2023-11-21T14:25:12.681Z,99742.75
2023-11-21T14:27:40.114Z,99745.91
2023-11-21T14:30:08.045Z,99730.28
2023-11-21T14:32:36.229Z,99725.88
2023-11-21T14:35:04.873Z,99734.09
2023-11-21T14:37:32.312Z,99743.06
2023-11-21T14:39:59.660Z,99746.53
2023-11-21T14:42:30.831Z,99754.28
2023-11-21T14:45:04.060Z,99731.88
2023-11-21T14:47:31.457Z,99756.47
2023-11-21T14:50:01.189Z,99757.72
2023-11-21T14:52:36.366Z,99757.09
2023-11-21T14:55:22.108Z,99753.00
2023-11-21T14:57:52.290Z,99752.06
2023-11-21T15:00:53.052Z,99754.25
2023-11-21T15:03:46.584Z,99755.84
2023-11-21T15:06:20.977Z,99759.31
2023-11-21T15:09:09.127Z,99759.13
2023-11-21T15:11:38.075Z,99768.13
2023-11-21T15:14:10.320Z,99759.63
2023-11-21T15:16:43.954Z,99752.03
2023-11-21T15:19:13.347Z,99761.81
2023-11-21T15:21:40.700Z,99767.19
2023-11-21T15:24:08.196Z,99769.41
2023-11-21T15:26:35.529Z,99779.31
2023-11-21T15:29:02.944Z,99788.63
2023-11-21T15:35:32.889Z,99779.47
2023-11-21T15:38:00.814Z,99777.91
2023-11-21T15:40:28.608Z,99777.75
2023-11-21T15:42:56.090Z,99776.34
2023-11-21T15:45:26.167Z,99783.09
2023-11-21T15:47:58.482Z,99783.88
2023-11-21T15:50:29.049Z,99787.34
2023-11-21T15:52:58.161Z,99786.06
2023-11-21T15:55:26.532Z,99785.75
2023-11-21T15:57:53.884Z,99787.50
2023-11-21T16:00:23.833Z,99798.03
2023-11-21T16:02:51.670Z,99801.38
2023-11-21T16:05:19.345Z,99800.59
2023-11-21T16:07:47.532Z,99803.56
2023-11-21T16:10:17.645Z,99801.84
2023-11-21T16:12:44.969Z,99804.38
2023-11-21T16:15:13.050Z,99803.88
2023-11-21T16:17:40.660Z,99793.00
2023-11-21T16:20:10.640Z,99799.94
2023-11-21T16:22:38.857Z,99802.00
2023-11-21T16:25:11.917Z,99806.88
2023-11-21T16:27:39.674Z,99800.09
2023-11-21T16:30:10.917Z,99797.41
2023-11-21T16:32:38.576Z,99797.41
2023-11-21T16:35:06.455Z,99806.25
2023-11-21T16:37:33.797Z,99804.03
2023-11-21T16:40:01.321Z,99804.03
2023-11-21T16:42:30.851Z,99797.41
2023-11-21T16:44:58.576Z,99804.03
2023-11-21T16:47:28.857Z,99804.03
2023-11-21T16:49:57.913Z,99802.13
2023-11-21T16:52:25.364Z,99802.13
2023-11-21T16:54:52.837Z,99816.63
2023-11-21T16:57:20.240Z,99814.56
2023-11-21T16:59:51.677Z,99815.03
2023-11-21T17:02:20.275Z,99818.81
2023-11-21T17:04:50.265Z,99818.81
2023-11-21T17:07:18.547Z,99820.06
2023-11-21T17:09:45.928Z,99817.72
2023-11-21T17:12:13.233Z,99810.00
2023-11-21T17:14:43.125Z,99817.69
2023-11-21T17:17:11.510Z,99819.94
2023-11-21T17:19:40.595Z,99816.63
2023-11-21T17:22:09.097Z,99807.78
2023-11-21T17:24:37.524Z,99821.38
2023-11-21T17:27:05.760Z,99822.31
2023-11-21T17:29:33.137Z,99817.41
2023-11-21T17:32:00.844Z,99818.06
2023-11-21T17:34:29.233Z,99830.94
2023-11-21T17:36:56.866Z,99823.69
2023-11-21T17:39:24.476Z,99825.72
2023-11-21T17:41:51.894Z,99826.53
2023-11-21T17:44:19.238Z,99822.91
2023-11-21T17:46:46.665Z,99835.19
2023-11-21T17:49:14.058Z,99826.66
2023-11-21T17:51:42.310Z,99829.00
2023-11-21T17:54:09.910Z,99832.00
2023-11-21T17:56:37.604Z,99836.22
2023-11-21T17:59:05.703Z,99835.63
2023-11-21T18:01:40.001Z,99833.13
2023-11-21T18:04:08.327Z,99831.69
2023-11-21T18:06:35.759Z,99838.28
2023-11-21T18:09:04.741Z,99829.78
2023-11-21T18:11:32.154Z,99837.84
2023-11-21T18:13:59.556Z,99834.84
2023-11-21T18:16:27.320Z,99842.28
2023-11-21T18:18:54.829Z,99845.25
2023-11-21T18:21:22.163Z,99841.28
2023-11-21T18:23:49.622Z,99847.59
2023-11-21T18:26:20.164Z,99849.16
2023-11-21T18:28:47.772Z,99850.56
2023-11-21T18:31:16.293Z,99846.00
2023-11-21T18:33:44.835Z,99851.03
2023-11-21T18:36:12.235Z,99845.38
2023-11-21T18:38:39.900Z,99843.81
2023-11-21T18:41:07.367Z,99834.56
2023-11-21T18:43:34.688Z,99827.56
2023-11-21T18:46:03.721Z,99836.69
2023-11-21T18:48:31.287Z,99837.31
2023-11-21T18:50:58.638Z,99836.22
2023-11-21T18:53:26.776Z,99835.19
2023-11-21T18:55:54.173Z,99843.03
2023-11-21T18:58:21.524Z,99834.72
2023-11-21T19:00:48.858Z,99847.97
2023-11-21T19:03:16.280Z,99852.97
2023-11-21T19:05:43.744Z,99858.66
2023-11-21T19:08:11.138Z,99858.97
2023-11-21T19:10:38.578Z,99855.97
2023-11-21T19:13:23.142Z,99852.69
2023-11-21T19:15:50.452Z,99873.31
2023-11-21T19:18:17.852Z,99871.13
2023-11-21T19:20:45.442Z,99867.50
2023-11-21T19:23:12.829Z,99862.47
2023-11-21T19:25:40.261Z,99866.72
2023-11-21T19:28:07.593Z,99870.97
2023-11-21T19:30:36.101Z,99870.31
2023-11-21T19:33:06.901Z,99885.94
2023-11-21T19:35:40.341Z,99886.25
2023-11-21T19:38:07.747Z,99890.38
2023-11-21T19:40:35.580Z,99881.34
2023-11-21T19:43:03.771Z,99885.16
2023-11-21T19:45:32.502Z,99897.44
2023-11-21T19:47:59.965Z,99895.06
2023-11-21T19:50:27.539Z,99888.00
2023-11-21T19:52:54.873Z,99900.75
2023-11-21T19:55:22.178Z,99898.69
2023-11-21T19:57:49.892Z,99893.66
2023-11-21T20:00:17.773Z,99898.53
2023-11-21T20:02:45.397Z,99892.88
2023-11-21T20:05:16.402Z,99900.41
2023-11-21T20:07:44.277Z,99905.16
2023-11-21T20:10:11.902Z,99899.66
2023-11-21T20:12:39.254Z,99898.72
2023-11-21T20:15:07.476Z,99903.59
2023-11-21T20:17:34.869Z,99896.03
2023-11-21T20:20:02.376Z,99898.72
2023-11-21T20:22:29.865Z,99906.75
2023-11-21T20:24:58.177Z,99909.75
2023-11-21T20:27:25.489Z,99914.16
2023-11-21T20:29:52.830Z,99920.00
2023-11-21T20:32:25.306Z,99916.22
2023-11-21T20:34:54.261Z,99923.16
2023-11-21T20:37:21.670Z,99919.38
2023-11-21T20:39:50.044Z,99926.59
2023-11-21T20:42:17.500Z,99911.25
2023-11-21T20:44:44.831Z,99912.63
2023-11-21T20:47:12.845Z,99910.22
2023-11-21T20:49:48.069Z,99914.81
2023-11-21T20:52:16.579Z,99919.31
2023-11-21T20:54:45.627Z,99920.41
2023-11-21T20:57:13.565Z,99917.41
2023-11-21T20:59:40.894Z,99914.44
2023-11-21T21:02:08.304Z,99911.28
2023-11-21T21:04:35.683Z,99913.47
2023-11-21T21:07:03.630Z,99919.31
2023-11-21T21:09:31.120Z,99924.66
2023-11-21T21:11:58.698Z,99932.09
2023-11-21T21:14:30.182Z,99927.97
2023-11-21T21:16:58.367Z,99925.75
2023-11-21T21:19:29.042Z,99912.22
2023-11-21T21:21:57.341Z,99922.00
2023-11-21T21:24:24.716Z,99928.91
2023-11-21T21:26:52.016Z,99924.66
2023-11-21T21:29:21.626Z,99933.78
2023-11-21T21:31:49.150Z,99933.78
2023-11-21T21:34:18.075Z,99929.53
2023-11-21T21:36:46.598Z,99932.69
2023-11-21T21:39:15.034Z,99932.56
2023-11-21T21:41:42.419Z,99930.97
2023-11-21T21:44:09.898Z,99928.97
2023-11-21T21:46:37.696Z,99923.91
2023-11-21T21:49:05.441Z,99934.00
2023-11-21T21:51:33.663Z,99937.81
2023-11-21T21:54:01.032Z,99942.06
2023-11-21T21:56:28.527Z,99939.88
2023-11-21T21:58:58.091Z,99941.16
2023-11-21T22:01:29.954Z,99938.31
2023-11-21T22:03:57.485Z,99942.88
2023-11-21T22:06:24.850Z,99936.91
2023-11-21T22:08:52.200Z,99933.31
2023-11-21T22:11:19.630Z,99935.47
2023-11-21T22:13:47.037Z,99939.69
2023-11-21T22:16:16.662Z,99929.25
2023-11-21T22:18:44.356Z,99945.66
2023-11-21T22:21:19.074Z,99954.19
2023-11-21T22:23:46.395Z,99958.13
2023-11-21T22:26:17.077Z,99945.06
2023-11-21T22:28:44.444Z,99947.91
2023-11-21T22:31:11.793Z,99950.28
2023-11-21T22:33:39.714Z,99962.44
2023-11-21T22:36:07.318Z,99964.97
2023-11-21T22:38:34.742Z,99955.84
2023-11-21T22:41:04.019Z,99962.16
2023-11-21T22:43:32.301Z,99962.66
2023-11-21T22:45:59.802Z,99966.91
2023-11-21T22:48:28.308Z,99971.94
2023-11-21T22:50:55.794Z,99972.59
2023-11-21T22:53:23.217Z,99967.13
2023-11-21T22:55:50.582Z,99966.00
2023-11-21T22:58:18.010Z,99958.78
2023-11-21T23:00:46.857Z,99958.47
2023-11-21T23:03:14.506Z,99947.75
2023-11-21T23:05:42.060Z,99957.81
2023-11-21T23:08:10.400Z,99956.25
2023-11-21T23:10:40.399Z,99971.56
2023-11-21T23:13:09.477Z,99969.50
2023-11-21T23:15:36.853Z,99969.66
2023-11-21T23:18:06.300Z,99967.28
2023-11-21T23:20:33.714Z,99970.47
2023-11-21T23:23:01.038Z,99968.91
2023-11-21T23:25:28.308Z,99979.63
2023-11-21T23:27:55.696Z,99981.19
2023-11-21T23:30:24.762Z,99969.84
2023-11-21T23:32:52.167Z,99971.59
2023-11-21T23:35:19.621Z,99962.44
2023-11-21T23:37:46.998Z,99953.47
2023-11-21T23:40:14.927Z,99945.44
2023-11-21T23:42:42.262Z,99947.50
2023-11-21T23:45:10.108Z,99957.09
2023-11-21T23:47:37.499Z,99951.75
2023-11-21T23:50:05.618Z,99952.72
2023-11-21T23:52:33.027Z,99955.53
2023-11-21T23:55:00.400Z,99955.41
2023-11-21T23:57:27.776Z,99954.75
2023-11-21T23:59:55.145Z,99965.97
